sensor_id;sensor_type;location;lat;lon;timestamp;P1;durP1;ratioP1;P2;durP2;ratioP2
54123;SDS011;55741;53.252;5.788;2023-07-13T00:02:22;15.18;;;2.70;;
54123;SDS011;55741;53.252;5.788;2023-07-13T00:04:49;15.73;;;2.95;;
54123;SDS011;55741;53.252;5.788;2023-07-13T00:07:15;7.50;;;1.98;;
54123;SDS011;55741;53.252;5.788;2023-07-13T00:09:45;8.40;;;2.50;;
54123;SDS011;55741;53.252;5.788;2023-07-13T00:12:22;10.02;;;2.30;;
54123;SDS011;55741;53.252;5.788;2023-07-13T00:14:50;7.90;;;2.85;;
54123;SDS011;55741;53.252;5.788;2023-07-13T00:17:16;7.40;;;2.08;;
54123;SDS011;55741;53.252;5.788;2023-07-13T00:19:42;7.53;;;2.15;;
54123;SDS011;55741;53.252;5.788;2023-07-13T00:22:08;8.23;;;2.53;;
54123;SDS011;55741;53.252;5.788;2023-07-13T00:24:34;11.18;;;2.38;;
54123;SDS011;55741;53.252;5.788;2023-07-13T00:27:01;10.63;;;2.00;;
54123;SDS011;55741;53.252;5.788;2023-07-13T00:29:27;7.25;;;2.00;;
54123;SDS011;55741;53.252;5.788;2023-07-13T00:31:52;9.48;;;2.55;;
54123;SDS011;55741;53.252;5.788;2023-07-13T00:34:18;8.07;;;2.10;;
54123;SDS011;55741;53.252;5.788;2023-07-13T00:36:44;6.65;;;2.00;;
54123;SDS011;55741;53.252;5.788;2023-07-13T00:39:10;6.18;;;1.85;;
54123;SDS011;55741;53.252;5.788;2023-07-13T00:41:36;7.90;;;2.03;;
54123;SDS011;55741;53.252;5.788;2023-07-13T00:44:02;6.45;;;2.40;;
54123;SDS011;55741;53.252;5.788;2023-07-13T00:46:29;8.38;;;2.38;;
54123;SDS011;55741;53.252;5.788;2023-07-13T00:49:02;8.88;;;2.53;;
54123;SDS011;55741;53.252;5.788;2023-07-13T00:51:43;7.10;;;2.20;;
54123;SDS011;55741;53.252;5.788;2023-07-13T00:54:20;7.53;;;1.75;;
54123;SDS011;55741;53.252;5.788;2023-07-13T00:56:49;7.97;;;2.35;;
54123;SDS011;55741;53.252;5.788;2023-07-13T00:59:17;7.63;;;1.90;;
54123;SDS011;55741;53.252;5.788;2023-07-13T01:01:45;10.50;;;1.95;;
54123;SDS011;55741;53.252;5.788;2023-07-13T01:04:12;4.85;;;1.58;;
54123;SDS011;55741;53.252;5.788;2023-07-13T01:06:39;12.15;;;2.00;;
54123;SDS011;55741;53.252;5.788;2023-07-13T01:09:06;6.28;;;1.77;;
54123;SDS011;55741;53.252;5.788;2023-07-13T01:11:33;5.72;;;1.58;;
54123;SDS011;55741;53.252;5.788;2023-07-13T01:14:00;18.63;;;2.20;;
54123;SDS011;55741;53.252;5.788;2023-07-13T01:16:28;7.40;;;1.58;;
54123;SDS011;55741;53.252;5.788;2023-07-13T01:18:59;8.38;;;1.90;;
54123;SDS011;55741;53.252;5.788;2023-07-13T01:21:29;9.43;;;1.75;;
54123;SDS011;55741;53.252;5.788;2023-07-13T01:23:57;8.75;;;1.80;;
54123;SDS011;55741;53.252;5.788;2023-07-13T01:26:23;7.03;;;1.98;;
54123;SDS011;55741;53.252;5.788;2023-07-13T01:28:49;5.47;;;1.50;;
54123;SDS011;55741;53.252;5.788;2023-07-13T01:31:15;9.75;;;1.88;;
54123;SDS011;55741;53.252;5.788;2023-07-13T01:33:41;8.75;;;1.92;;
54123;SDS011;55741;53.252;5.788;2023-07-13T01:36:07;8.20;;;1.60;;
54123;SDS011;55741;53.252;5.788;2023-07-13T01:38:34;7.25;;;1.75;;
54123;SDS011;55741;53.252;5.788;2023-07-13T01:41:01;6.13;;;1.40;;
54123;SDS011;55741;53.252;5.788;2023-07-13T01:43:27;6.53;;;1.85;;
54123;SDS011;55741;53.252;5.788;2023-07-13T01:45:52;6.72;;;1.60;;
54123;SDS011;55741;53.252;5.788;2023-07-13T01:48:19;6.28;;;1.67;;
54123;SDS011;55741;53.252;5.788;2023-07-13T01:50:47;7.68;;;2.20;;
54123;SDS011;55741;53.252;5.788;2023-07-13T01:53:13;9.43;;;2.33;;
54123;SDS011;55741;53.252;5.788;2023-07-13T01:55:39;10.52;;;1.85;;
54123;SDS011;55741;53.252;5.788;2023-07-13T01:58:05;9.02;;;1.90;;
54123;SDS011;55741;53.252;5.788;2023-07-13T02:00:31;10.73;;;1.83;;
54123;SDS011;55741;53.252;5.788;2023-07-13T02:02:58;12.15;;;2.80;;
54123;SDS011;55741;53.252;5.788;2023-07-13T02:05:23;8.80;;;2.10;;
54123;SDS011;55741;53.252;5.788;2023-07-13T02:07:49;13.55;;;2.72;;
54123;SDS011;55741;53.252;5.788;2023-07-13T02:10:16;11.18;;;2.83;;
54123;SDS011;55741;53.252;5.788;2023-07-13T02:12:42;11.40;;;2.38;;
54123;SDS011;55741;53.252;5.788;2023-07-13T02:15:08;10.23;;;2.42;;
54123;SDS011;55741;53.252;5.788;2023-07-13T02:17:35;13.27;;;2.65;;
54123;SDS011;55741;53.252;5.788;2023-07-13T02:20:01;14.20;;;2.38;;
54123;SDS011;55741;53.252;5.788;2023-07-13T02:22:28;10.85;;;2.22;;
54123;SDS011;55741;53.252;5.788;2023-07-13T02:24:54;9.30;;;2.47;;
54123;SDS011;55741;53.252;5.788;2023-07-13T02:27:20;8.63;;;2.60;;
54123;SDS011;55741;53.252;5.788;2023-07-13T02:29:46;12.30;;;2.72;;
54123;SDS011;55741;53.252;5.788;2023-07-13T02:32:11;8.85;;;2.75;;
54123;SDS011;55741;53.252;5.788;2023-07-13T02:34:38;9.57;;;2.20;;
54123;SDS011;55741;53.252;5.788;2023-07-13T02:37:04;12.45;;;3.83;;
54123;SDS011;55741;53.252;5.788;2023-07-13T02:39:29;10.32;;;2.58;;
54123;SDS011;55741;53.252;5.788;2023-07-13T02:41:58;11.93;;;3.25;;
54123;SDS011;55741;53.252;5.788;2023-07-13T02:44:25;11.82;;;2.28;;
54123;SDS011;55741;53.252;5.788;2023-07-13T02:46:51;10.13;;;2.30;;
54123;SDS011;55741;53.252;5.788;2023-07-13T02:49:17;12.20;;;2.65;;
54123;SDS011;55741;53.252;5.788;2023-07-13T02:51:45;11.90;;;3.30;;
54123;SDS011;55741;53.252;5.788;2023-07-13T02:54:10;12.00;;;3.25;;
54123;SDS011;55741;53.252;5.788;2023-07-13T02:56:38;14.70;;;3.75;;
54123;SDS011;55741;53.252;5.788;2023-07-13T02:59:05;10.43;;;2.80;;
54123;SDS011;55741;53.252;5.788;2023-07-13T03:01:31;12.80;;;3.10;;
54123;SDS011;55741;53.252;5.788;2023-07-13T03:03:57;10.48;;;2.55;;
54123;SDS011;55741;53.252;5.788;2023-07-13T03:06:23;10.23;;;2.92;;
54123;SDS011;55741;53.252;5.788;2023-07-13T03:08:49;10.18;;;3.08;;
54123;SDS011;55741;53.252;5.788;2023-07-13T03:11:17;12.63;;;2.97;;
54123;SDS011;55741;53.252;5.788;2023-07-13T03:13:44;19.67;;;4.65;;
54123;SDS011;55741;53.252;5.788;2023-07-13T03:16:11;17.70;;;3.60;;
54123;SDS011;55741;53.252;5.788;2023-07-13T03:18:37;13.50;;;2.80;;
54123;SDS011;55741;53.252;5.788;2023-07-13T03:21:05;14.88;;;3.42;;
54123;SDS011;55741;53.252;5.788;2023-07-13T03:23:31;10.75;;;3.10;;
54123;SDS011;55741;53.252;5.788;2023-07-13T03:26:01;13.38;;;3.38;;
54123;SDS011;55741;53.252;5.788;2023-07-13T03:28:27;12.43;;;3.30;;
54123;SDS011;55741;53.252;5.788;2023-07-13T03:31:00;15.45;;;3.53;;
54123;SDS011;55741;53.252;5.788;2023-07-13T03:33:31;19.95;;;4.55;;
54123;SDS011;55741;53.252;5.788;2023-07-13T03:35:56;12.02;;;3.90;;
54123;SDS011;55741;53.252;5.788;2023-07-13T03:38:22;13.48;;;4.03;;
54123;SDS011;55741;53.252;5.788;2023-07-13T03:40:48;14.90;;;3.90;;
54123;SDS011;55741;53.252;5.788;2023-07-13T03:43:14;14.73;;;4.38;;
54123;SDS011;55741;53.252;5.788;2023-07-13T03:45:40;13.82;;;3.53;;
54123;SDS011;55741;53.252;5.788;2023-07-13T03:48:06;15.10;;;3.75;;
54123;SDS011;55741;53.252;5.788;2023-07-13T03:50:32;17.45;;;5.05;;
54123;SDS011;55741;53.252;5.788;2023-07-13T03:53:02;14.20;;;3.95;;
54123;SDS011;55741;53.252;5.788;2023-07-13T03:55:28;13.35;;;4.75;;
54123;SDS011;55741;53.252;5.788;2023-07-13T03:57:58;16.65;;;4.22;;
54123;SDS011;55741;53.252;5.788;2023-07-13T04:00:26;18.75;;;4.22;;
54123;SDS011;55741;53.252;5.788;2023-07-13T04:02:52;15.07;;;4.15;;
54123;SDS011;55741;53.252;5.788;2023-07-13T04:05:18;16.80;;;4.68;;
54123;SDS011;55741;53.252;5.788;2023-07-13T04:07:44;13.52;;;3.92;;
54123;SDS011;55741;53.252;5.788;2023-07-13T04:10:09;18.73;;;4.30;;
54123;SDS011;55741;53.252;5.788;2023-07-13T04:12:35;16.65;;;4.65;;
54123;SDS011;55741;53.252;5.788;2023-07-13T04:15:01;19.42;;;4.63;;
54123;SDS011;55741;53.252;5.788;2023-07-13T04:17:27;12.65;;;3.92;;
54123;SDS011;55741;53.252;5.788;2023-07-13T04:19:53;9.18;;;3.38;;
54123;SDS011;55741;53.252;5.788;2023-07-13T04:22:19;10.98;;;3.33;;
54123;SDS011;55741;53.252;5.788;2023-07-13T04:24:44;12.60;;;3.45;;
54123;SDS011;55741;53.252;5.788;2023-07-13T04:27:10;12.50;;;3.60;;
54123;SDS011;55741;53.252;5.788;2023-07-13T04:29:36;13.38;;;4.07;;
54123;SDS011;55741;53.252;5.788;2023-07-13T04:32:02;13.55;;;4.05;;
54123;SDS011;55741;53.252;5.788;2023-07-13T04:34:28;15.70;;;4.90;;
54123;SDS011;55741;53.252;5.788;2023-07-13T04:36:54;11.55;;;3.80;;
54123;SDS011;55741;53.252;5.788;2023-07-13T04:39:20;12.48;;;3.90;;
54123;SDS011;55741;53.252;5.788;2023-07-13T04:41:45;12.98;;;4.63;;
54123;SDS011;55741;53.252;5.788;2023-07-13T04:44:11;11.70;;;3.92;;
54123;SDS011;55741;53.252;5.788;2023-07-13T04:46:37;11.85;;;4.15;;
54123;SDS011;55741;53.252;5.788;2023-07-13T04:49:03;15.85;;;3.50;;
54123;SDS011;55741;53.252;5.788;2023-07-13T04:51:29;13.13;;;3.90;;
54123;SDS011;55741;53.252;5.788;2023-07-13T04:53:56;11.32;;;3.30;;
54123;SDS011;55741;53.252;5.788;2023-07-13T04:56:22;10.45;;;3.40;;
54123;SDS011;55741;53.252;5.788;2023-07-13T04:58:48;9.95;;;2.83;;
54123;SDS011;55741;53.252;5.788;2023-07-13T05:01:14;15.90;;;3.10;;
54123;SDS011;55741;53.252;5.788;2023-07-13T05:03:40;9.77;;;2.95;;
54123;SDS011;55741;53.252;5.788;2023-07-13T05:06:06;8.70;;;3.00;;
54123;SDS011;55741;53.252;5.788;2023-07-13T05:08:35;11.98;;;3.20;;
54123;SDS011;55741;53.252;5.788;2023-07-13T05:11:01;10.80;;;3.17;;
54123;SDS011;55741;53.252;5.788;2023-07-13T05:13:28;12.65;;;3.28;;
54123;SDS011;55741;53.252;5.788;2023-07-13T05:15:58;5.60;;;2.38;;
54123;SDS011;55741;53.252;5.788;2023-07-13T05:18:29;9.70;;;2.83;;
54123;SDS011;55741;53.252;5.788;2023-07-13T05:20:57;8.68;;;2.58;;
54123;SDS011;55741;53.252;5.788;2023-07-13T05:23:33;7.82;;;2.10;;
54123;SDS011;55741;53.252;5.788;2023-07-13T05:26:00;12.43;;;2.97;;
54123;SDS011;55741;53.252;5.788;2023-07-13T05:28:27;6.60;;;2.50;;
54123;SDS011;55741;53.252;5.788;2023-07-13T05:30:53;9.40;;;2.83;;
54123;SDS011;55741;53.252;5.788;2023-07-13T05:33:19;11.27;;;3.22;;
54123;SDS011;55741;53.252;5.788;2023-07-13T05:35:45;7.05;;;3.03;;
54123;SDS011;55741;53.252;5.788;2023-07-13T05:38:12;8.20;;;2.90;;
54123;SDS011;55741;53.252;5.788;2023-07-13T05:40:38;12.05;;;2.20;;
54123;SDS011;55741;53.252;5.788;2023-07-13T05:43:04;8.45;;;2.53;;
54123;SDS011;55741;53.252;5.788;2023-07-13T05:45:30;6.03;;;2.50;;
54123;SDS011;55741;53.252;5.788;2023-07-13T05:47:56;7.63;;;2.47;;
54123;SDS011;55741;53.252;5.788;2023-07-13T05:50:22;5.72;;;2.00;;
54123;SDS011;55741;53.252;5.788;2023-07-13T05:52:48;7.90;;;2.25;;
54123;SDS011;55741;53.252;5.788;2023-07-13T05:55:15;8.85;;;1.85;;
54123;SDS011;55741;53.252;5.788;2023-07-13T05:57:41;6.60;;;2.00;;
54123;SDS011;55741;53.252;5.788;2023-07-13T06:00:07;8.30;;;2.40;;
54123;SDS011;55741;53.252;5.788;2023-07-13T06:02:34;8.27;;;2.20;;
54123;SDS011;55741;53.252;5.788;2023-07-13T06:05:00;6.57;;;1.95;;
54123;SDS011;55741;53.252;5.788;2023-07-13T06:07:26;5.88;;;1.95;;
54123;SDS011;55741;53.252;5.788;2023-07-13T06:09:52;5.32;;;1.80;;
54123;SDS011;55741;53.252;5.788;2023-07-13T06:12:18;4.45;;;1.73;;
54123;SDS011;55741;53.252;5.788;2023-07-13T06:14:44;7.70;;;1.92;;
54123;SDS011;55741;53.252;5.788;2023-07-13T06:17:09;9.82;;;2.15;;
54123;SDS011;55741;53.252;5.788;2023-07-13T06:19:35;6.03;;;2.13;;
54123;SDS011;55741;53.252;5.788;2023-07-13T06:22:01;8.05;;;2.10;;
54123;SDS011;55741;53.252;5.788;2023-07-13T06:24:27;7.57;;;2.33;;
54123;SDS011;55741;53.252;5.788;2023-07-13T06:26:53;4.25;;;1.77;;
54123;SDS011;55741;53.252;5.788;2023-07-13T06:29:18;6.57;;;2.22;;
54123;SDS011;55741;53.252;5.788;2023-07-13T06:31:44;5.03;;;1.80;;
54123;SDS011;55741;53.252;5.788;2023-07-13T06:34:10;5.53;;;2.13;;
54123;SDS011;55741;53.252;5.788;2023-07-13T06:36:36;7.32;;;2.13;;
54123;SDS011;55741;53.252;5.788;2023-07-13T06:39:03;6.40;;;2.13;;
54123;SDS011;55741;53.252;5.788;2023-07-13T06:41:29;6.43;;;2.05;;
54123;SDS011;55741;53.252;5.788;2023-07-13T06:43:55;8.38;;;2.22;;
54123;SDS011;55741;53.252;5.788;2023-07-13T06:46:21;7.93;;;2.50;;
54123;SDS011;55741;53.252;5.788;2023-07-13T06:48:48;6.68;;;1.92;;
54123;SDS011;55741;53.252;5.788;2023-07-13T06:51:15;5.53;;;1.75;;
54123;SDS011;55741;53.252;5.788;2023-07-13T06:53:41;8.40;;;2.42;;
54123;SDS011;55741;53.252;5.788;2023-07-13T06:56:10;4.75;;;1.58;;
54123;SDS011;55741;53.252;5.788;2023-07-13T06:58:36;7.82;;;2.00;;
54123;SDS011;55741;53.252;5.788;2023-07-13T07:01:03;6.78;;;2.03;;
54123;SDS011;55741;53.252;5.788;2023-07-13T07:03:30;7.10;;;2.40;;
54123;SDS011;55741;53.252;5.788;2023-07-13T07:06:06;6.70;;;1.75;;
54123;SDS011;55741;53.252;5.788;2023-07-13T07:08:39;5.45;;;1.50;;
54123;SDS011;55741;53.252;5.788;2023-07-13T07:11:05;4.05;;;1.60;;
54123;SDS011;55741;53.252;5.788;2023-07-13T07:13:33;7.85;;;1.75;;
54123;SDS011;55741;53.252;5.788;2023-07-13T07:15:59;6.63;;;1.70;;
54123;SDS011;55741;53.252;5.788;2023-07-13T07:18:25;6.00;;;2.38;;
54123;SDS011;55741;53.252;5.788;2023-07-13T07:20:51;5.20;;;1.88;;
54123;SDS011;55741;53.252;5.788;2023-07-13T07:23:17;5.97;;;1.60;;
54123;SDS011;55741;53.252;5.788;2023-07-13T07:25:44;7.15;;;2.40;;
54123;SDS011;55741;53.252;5.788;2023-07-13T07:28:10;7.13;;;2.20;;
54123;SDS011;55741;53.252;5.788;2023-07-13T07:30:41;4.65;;;1.77;;
54123;SDS011;55741;53.252;5.788;2023-07-13T07:33:08;5.20;;;1.95;;
54123;SDS011;55741;53.252;5.788;2023-07-13T07:35:34;6.05;;;1.90;;
54123;SDS011;55741;53.252;5.788;2023-07-13T07:38:00;8.88;;;2.30;;
54123;SDS011;55741;53.252;5.788;2023-07-13T07:40:26;6.03;;;2.30;;
54123;SDS011;55741;53.252;5.788;2023-07-13T07:42:52;6.28;;;1.90;;
54123;SDS011;55741;53.252;5.788;2023-07-13T07:45:18;6.45;;;1.90;;
54123;SDS011;55741;53.252;5.788;2023-07-13T07:47:45;3.38;;;1.70;;
54123;SDS011;55741;53.252;5.788;2023-07-13T07:50:10;10.07;;;2.50;;
54123;SDS011;55741;53.252;5.788;2023-07-13T07:52:36;6.28;;;2.45;;
54123;SDS011;55741;53.252;5.788;2023-07-13T07:55:03;7.35;;;2.10;;
54123;SDS011;55741;53.252;5.788;2023-07-13T07:57:32;4.97;;;1.90;;
54123;SDS011;55741;53.252;5.788;2023-07-13T07:59:58;4.82;;;1.70;;
54123;SDS011;55741;53.252;5.788;2023-07-13T08:02:26;7.13;;;2.60;;
54123;SDS011;55741;53.252;5.788;2023-07-13T08:04:52;6.05;;;1.90;;
54123;SDS011;55741;53.252;5.788;2023-07-13T08:07:18;8.05;;;2.30;;
54123;SDS011;55741;53.252;5.788;2023-07-13T08:09:44;6.40;;;2.17;;
54123;SDS011;55741;53.252;5.788;2023-07-13T08:12:10;9.10;;;2.45;;
54123;SDS011;55741;53.252;5.788;2023-07-13T08:14:35;8.38;;;2.30;;
54123;SDS011;55741;53.252;5.788;2023-07-13T08:17:01;6.93;;;1.92;;
54123;SDS011;55741;53.252;5.788;2023-07-13T08:19:27;7.50;;;2.30;;
54123;SDS011;55741;53.252;5.788;2023-07-13T08:21:53;7.13;;;2.83;;
54123;SDS011;55741;53.252;5.788;2023-07-13T08:24:21;5.75;;;1.90;;
54123;SDS011;55741;53.252;5.788;2023-07-13T08:26:50;5.18;;;1.92;;
54123;SDS011;55741;53.252;5.788;2023-07-13T08:29:17;6.28;;;2.42;;
54123;SDS011;55741;53.252;5.788;2023-07-13T08:31:43;9.75;;;2.10;;
54123;SDS011;55741;53.252;5.788;2023-07-13T08:34:10;6.20;;;2.65;;
54123;SDS011;55741;53.252;5.788;2023-07-13T08:36:36;4.30;;;2.03;;
54123;SDS011;55741;53.252;5.788;2023-07-13T08:39:02;4.65;;;1.80;;
54123;SDS011;55741;53.252;5.788;2023-07-13T08:41:28;6.22;;;2.65;;
54123;SDS011;55741;53.252;5.788;2023-07-13T08:43:58;5.63;;;2.10;;
54123;SDS011;55741;53.252;5.788;2023-07-13T08:46:32;6.93;;;2.08;;
54123;SDS011;55741;53.252;5.788;2023-07-13T08:49:05;9.90;;;2.03;;
54123;SDS011;55741;53.252;5.788;2023-07-13T08:51:46;7.03;;;2.03;;
54123;SDS011;55741;53.252;5.788;2023-07-13T08:54:38;3.90;;;1.60;;
54123;SDS011;55741;53.252;5.788;2023-07-13T08:57:15;6.88;;;1.88;;
54123;SDS011;55741;53.252;5.788;2023-07-13T08:59:46;7.28;;;2.33;;
54123;SDS011;55741;53.252;5.788;2023-07-13T09:05:14;8.80;;;1.95;;
54123;SDS011;55741;53.252;5.788;2023-07-13T09:10:18;8.73;;;1.85;;
54123;SDS011;55741;53.252;5.788;2023-07-13T09:13:05;4.85;;;1.30;;
54123;SDS011;55741;53.252;5.788;2023-07-13T09:15:43;6.38;;;1.55;;
54123;SDS011;55741;53.252;5.788;2023-07-13T09:18:19;6.75;;;1.50;;
54123;SDS011;55741;53.252;5.788;2023-07-13T09:21:03;3.95;;;1.30;;
54123;SDS011;55741;53.252;5.788;2023-07-13T09:23:35;3.67;;;1.50;;
54123;SDS011;55741;53.252;5.788;2023-07-13T09:26:04;4.85;;;1.58;;
54123;SDS011;55741;53.252;5.788;2023-07-13T09:28:38;7.72;;;1.80;;
54123;SDS011;55741;53.252;5.788;2023-07-13T09:31:18;5.75;;;1.58;;
54123;SDS011;55741;53.252;5.788;2023-07-13T09:33:59;6.50;;;1.48;;
54123;SDS011;55741;53.252;5.788;2023-07-13T09:36:34;7.78;;;1.70;;
54123;SDS011;55741;53.252;5.788;2023-07-13T09:47:29;4.43;;;1.60;;
54123;SDS011;55741;53.252;5.788;2023-07-13T09:52:26;3.95;;;1.52;;
54123;SDS011;55741;53.252;5.788;2023-07-13T09:55:03;5.13;;;1.67;;
54123;SDS011;55741;53.252;5.788;2023-07-13T09:57:30;4.72;;;1.55;;
54123;SDS011;55741;53.252;5.788;2023-07-13T09:59:57;4.80;;;1.67;;
54123;SDS011;55741;53.252;5.788;2023-07-13T10:02:28;8.88;;;1.92;;
54123;SDS011;55741;53.252;5.788;2023-07-13T10:04:59;6.23;;;1.87;;
54123;SDS011;55741;53.252;5.788;2023-07-13T10:07:40;7.97;;;1.85;;
54123;SDS011;55741;53.252;5.788;2023-07-13T10:10:15;4.38;;;1.80;;
54123;SDS011;55741;53.252;5.788;2023-07-13T10:12:44;7.28;;;1.70;;
54123;SDS011;55741;53.252;5.788;2023-07-13T10:15:14;8.35;;;2.05;;
54123;SDS011;55741;53.252;5.788;2023-07-13T10:17:43;6.20;;;1.80;;
54123;SDS011;55741;53.252;5.788;2023-07-13T10:20:10;6.82;;;1.85;;
54123;SDS011;55741;53.252;5.788;2023-07-13T10:25:36;7.30;;;2.10;;
54123;SDS011;55741;53.252;5.788;2023-07-13T10:30:46;6.28;;;2.17;;
54123;SDS011;55741;53.252;5.788;2023-07-13T10:33:13;10.73;;;2.17;;
54123;SDS011;55741;53.252;5.788;2023-07-13T10:35:41;7.97;;;2.60;;
54123;SDS011;55741;53.252;5.788;2023-07-13T10:38:13;5.68;;;2.50;;
54123;SDS011;55741;53.252;5.788;2023-07-13T10:40:45;7.10;;;2.30;;
54123;SDS011;55741;53.252;5.788;2023-07-13T10:43:23;7.60;;;2.00;;
54123;SDS011;55741;53.252;5.788;2023-07-13T10:45:53;5.47;;;2.00;;
54123;SDS011;55741;53.252;5.788;2023-07-13T10:48:20;7.25;;;2.20;;
54123;SDS011;55741;53.252;5.788;2023-07-13T10:50:49;6.40;;;2.17;;
54123;SDS011;55741;53.252;5.788;2023-07-13T10:53:27;7.07;;;2.25;;
54123;SDS011;55741;53.252;5.788;2023-07-13T10:58:32;6.68;;;2.30;;
54123;SDS011;55741;53.252;5.788;2023-07-13T11:01:03;10.45;;;2.70;;
54123;SDS011;55741;53.252;5.788;2023-07-13T11:09:17;6.18;;;2.28;;
54123;SDS011;55741;53.252;5.788;2023-07-13T11:12:09;5.68;;;2.40;;
54123;SDS011;55741;53.252;5.788;2023-07-13T11:20:21;7.38;;;2.33;;
54123;SDS011;55741;53.252;5.788;2023-07-13T11:25:43;8.65;;;2.70;;
54123;SDS011;55741;53.252;5.788;2023-07-13T11:30:37;9.30;;;2.80;;
54123;SDS011;55741;53.252;5.788;2023-07-13T11:33:25;10.10;;;2.53;;
54123;SDS011;55741;53.252;5.788;2023-07-13T11:41:13;10.13;;;3.20;;
54123;SDS011;55741;53.252;5.788;2023-07-13T11:43:49;7.47;;;3.15;;
54123;SDS011;55741;53.252;5.788;2023-07-13T11:46:25;10.25;;;2.92;;
54123;SDS011;55741;53.252;5.788;2023-07-13T11:48:52;14.98;;;3.17;;
54123;SDS011;55741;53.252;5.788;2023-07-13T11:51:23;11.25;;;3.60;;
54123;SDS011;55741;53.252;5.788;2023-07-13T11:53:56;12.82;;;2.85;;
54123;SDS011;55741;53.252;5.788;2023-07-13T11:56:28;11.07;;;2.97;;
54123;SDS011;55741;53.252;5.788;2023-07-13T11:58:55;8.88;;;3.20;;
54123;SDS011;55741;53.252;5.788;2023-07-13T12:01:26;8.32;;;2.53;;
54123;SDS011;55741;53.252;5.788;2023-07-13T12:03:58;9.50;;;3.17;;
54123;SDS011;55741;53.252;5.788;2023-07-13T12:06:32;11.68;;;3.13;;
54123;SDS011;55741;53.252;5.788;2023-07-13T12:09:02;7.20;;;2.50;;
54123;SDS011;55741;53.252;5.788;2023-07-13T12:11:38;11.48;;;3.47;;
54123;SDS011;55741;53.252;5.788;2023-07-13T12:14:12;8.82;;;3.03;;
54123;SDS011;55741;53.252;5.788;2023-07-13T12:16:42;9.43;;;2.97;;
54123;SDS011;55741;53.252;5.788;2023-07-13T12:19:14;9.02;;;2.60;;
54123;SDS011;55741;53.252;5.788;2023-07-13T12:21:47;8.05;;;2.80;;
54123;SDS011;55741;53.252;5.788;2023-07-13T12:24:15;9.02;;;2.03;;
54123;SDS011;55741;53.252;5.788;2023-07-13T12:26:43;10.15;;;2.20;;
54123;SDS011;55741;53.252;5.788;2023-07-13T12:29:11;9.20;;;2.10;;
54123;SDS011;55741;53.252;5.788;2023-07-13T12:31:42;10.88;;;2.40;;
54123;SDS011;55741;53.252;5.788;2023-07-13T12:34:17;7.85;;;2.70;;
54123;SDS011;55741;53.252;5.788;2023-07-13T12:36:54;9.10;;;3.03;;
54123;SDS011;55741;53.252;5.788;2023-07-13T12:39:23;8.93;;;2.65;;
54123;SDS011;55741;53.252;5.788;2023-07-13T12:41:53;12.32;;;2.85;;
54123;SDS011;55741;53.252;5.788;2023-07-13T12:44:35;11.13;;;3.10;;
54123;SDS011;55741;53.252;5.788;2023-07-13T12:47:08;7.60;;;2.65;;
54123;SDS011;55741;53.252;5.788;2023-07-13T12:49:40;5.72;;;2.47;;
54123;SDS011;55741;53.252;5.788;2023-07-13T12:52:21;9.98;;;2.60;;
54123;SDS011;55741;53.252;5.788;2023-07-13T12:55:39;5.95;;;2.40;;
54123;SDS011;55741;53.252;5.788;2023-07-13T12:57:55;7.68;;;2.83;;
54123;SDS011;55741;53.252;5.788;2023-07-13T13:00:25;9.13;;;2.80;;
54123;SDS011;55741;53.252;5.788;2023-07-13T13:02:54;8.57;;;2.15;;
54123;SDS011;55741;53.252;5.788;2023-07-13T13:05:22;6.18;;;2.35;;
54123;SDS011;55741;53.252;5.788;2023-07-13T13:07:50;8.60;;;3.08;;
54123;SDS011;55741;53.252;5.788;2023-07-13T13:10:16;7.50;;;2.65;;
54123;SDS011;55741;53.252;5.788;2023-07-13T13:12:42;12.13;;;2.92;;
54123;SDS011;55741;53.252;5.788;2023-07-13T13:15:09;9.77;;;2.55;;
54123;SDS011;55741;53.252;5.788;2023-07-13T13:17:36;7.88;;;3.45;;
54123;SDS011;55741;53.252;5.788;2023-07-13T13:20:16;7.35;;;3.03;;
54123;SDS011;55741;53.252;5.788;2023-07-13T13:22:43;7.00;;;3.00;;
54123;SDS011;55741;53.252;5.788;2023-07-13T13:25:10;9.13;;;3.05;;
54123;SDS011;55741;53.252;5.788;2023-07-13T13:27:36;15.43;;;3.45;;
54123;SDS011;55741;53.252;5.788;2023-07-13T13:30:09;17.35;;;3.67;;
54123;SDS011;55741;53.252;5.788;2023-07-13T13:32:40;18.98;;;3.65;;
54123;SDS011;55741;53.252;5.788;2023-07-13T13:35:12;9.20;;;2.72;;
54123;SDS011;55741;53.252;5.788;2023-07-13T13:37:39;13.40;;;3.92;;
54123;SDS011;55741;53.252;5.788;2023-07-13T13:40:16;10.23;;;3.10;;
54123;SDS011;55741;53.252;5.788;2023-07-13T13:42:44;7.72;;;2.80;;
54123;SDS011;55741;53.252;5.788;2023-07-13T13:45:10;9.68;;;2.70;;
54123;SDS011;55741;53.252;5.788;2023-07-13T13:47:37;7.97;;;2.60;;
54123;SDS011;55741;53.252;5.788;2023-07-13T13:50:15;8.27;;;3.17;;
54123;SDS011;55741;53.252;5.788;2023-07-13T13:52:41;8.15;;;2.72;;
54123;SDS011;55741;53.252;5.788;2023-07-13T13:57:39;7.82;;;2.33;;
54123;SDS011;55741;53.252;5.788;2023-07-13T14:00:05;13.75;;;3.00;;
54123;SDS011;55741;53.252;5.788;2023-07-13T14:02:31;8.52;;;2.55;;
54123;SDS011;55741;53.252;5.788;2023-07-13T14:05:00;7.03;;;2.38;;
54123;SDS011;55741;53.252;5.788;2023-07-13T14:07:27;6.97;;;2.50;;
54123;SDS011;55741;53.252;5.788;2023-07-13T14:09:58;8.65;;;2.30;;
54123;SDS011;55741;53.252;5.788;2023-07-13T14:12:25;10.80;;;2.50;;
54123;SDS011;55741;53.252;5.788;2023-07-13T14:14:54;8.25;;;3.13;;
54123;SDS011;55741;53.252;5.788;2023-07-13T14:17:24;8.38;;;2.70;;
54123;SDS011;55741;53.252;5.788;2023-07-13T14:19:52;7.35;;;2.78;;
54123;SDS011;55741;53.252;5.788;2023-07-13T14:22:25;9.07;;;2.95;;
54123;SDS011;55741;53.252;5.788;2023-07-13T14:24:55;8.85;;;2.45;;
54123;SDS011;55741;53.252;5.788;2023-07-13T14:27:22;12.85;;;3.42;;
54123;SDS011;55741;53.252;5.788;2023-07-13T14:29:49;10.23;;;2.60;;
54123;SDS011;55741;53.252;5.788;2023-07-13T14:32:15;9.15;;;2.55;;
54123;SDS011;55741;53.252;5.788;2023-07-13T14:34:41;9.73;;;2.67;;
54123;SDS011;55741;53.252;5.788;2023-07-13T14:37:16;9.15;;;2.78;;
54123;SDS011;55741;53.252;5.788;2023-07-13T14:39:43;12.55;;;3.10;;
54123;SDS011;55741;53.252;5.788;2023-07-13T14:42:10;7.43;;;2.88;;
54123;SDS011;55741;53.252;5.788;2023-07-13T14:44:37;9.30;;;2.95;;
54123;SDS011;55741;53.252;5.788;2023-07-13T14:47:04;11.27;;;3.65;;
54123;SDS011;55741;53.252;5.788;2023-07-13T14:49:36;8.93;;;2.60;;
54123;SDS011;55741;53.252;5.788;2023-07-13T14:52:14;10.90;;;3.17;;
54123;SDS011;55741;53.252;5.788;2023-07-13T14:54:43;10.45;;;3.42;;
54123;SDS011;55741;53.252;5.788;2023-07-13T14:57:14;8.75;;;3.40;;
54123;SDS011;55741;53.252;5.788;2023-07-13T15:00:15;9.65;;;3.17;;
54123;SDS011;55741;53.252;5.788;2023-07-13T15:02:49;10.77;;;3.40;;
54123;SDS011;55741;53.252;5.788;2023-07-13T15:05:21;11.90;;;3.97;;
54123;SDS011;55741;53.252;5.788;2023-07-13T15:07:50;7.57;;;2.95;;
54123;SDS011;55741;53.252;5.788;2023-07-13T15:10:19;9.98;;;3.30;;
54123;SDS011;55741;53.252;5.788;2023-07-13T15:12:47;8.50;;;3.30;;
54123;SDS011;55741;53.252;5.788;2023-07-13T15:15:13;16.67;;;3.83;;
54123;SDS011;55741;53.252;5.788;2023-07-13T15:17:46;8.88;;;3.67;;
54123;SDS011;55741;53.252;5.788;2023-07-13T15:23:00;17.50;;;4.53;;
54123;SDS011;55741;53.252;5.788;2023-07-13T15:25:27;12.63;;;3.60;;
54123;SDS011;55741;53.252;5.788;2023-07-13T15:27:56;8.38;;;3.30;;
54123;SDS011;55741;53.252;5.788;2023-07-13T15:30:26;9.07;;;3.47;;
54123;SDS011;55741;53.252;5.788;2023-07-13T15:32:54;9.82;;;3.10;;
54123;SDS011;55741;53.252;5.788;2023-07-13T15:35:24;12.73;;;3.83;;
54123;SDS011;55741;53.252;5.788;2023-07-13T15:37:51;9.18;;;2.88;;
54123;SDS011;55741;53.252;5.788;2023-07-13T15:40:18;11.43;;;3.50;;
54123;SDS011;55741;53.252;5.788;2023-07-13T15:42:46;11.25;;;4.05;;
54123;SDS011;55741;53.252;5.788;2023-07-13T15:47:46;10.75;;;2.97;;